Saturday, August 18, 2018, 3:47 PM EDT
Back to Local

KRME, Griffiss Airfield

Location: Rome, NY, United States Lat: 43.233
Local Time: 3:47 PM EDT (19:47 GMT) Lon: -75.4
Time Zone: US/Eastern Elev: 505 ft

Show me the last for .
Show Decoded

2018-08-18 14:53 METAR KRME 181853Z 33008KT 310V010 10SM OVC040 23/18 A2988 RMK AO2 SLP114
                 T02330183 =
2018-08-18 13:53 METAR KRME 181753Z 35009KT 10SM FEW024 OVC037 22/18 A2989 RMK AO2 SLP118
                 T02220183 10244 20189 55004 =
2018-08-18 12:53 METAR KRME 181653Z 36008KT 10SM SCT022 23/18 A2989 RMK AO2 SLP116 T02280183 =
2018-08-18 12:31 METAR KRME 181631Z 35008KT 10SM SCT022 23/19 A2989 RMK AO2 T02330189 =
2018-08-18 11:53 METAR KRME 181553Z 33005KT 10SM BKN018 22/18 A2989 RMK AO2 SLP119 T02170183 =
2018-08-18 10:53 METAR KRME 181453Z 01007KT 10SM BKN015 21/18 A2990 RMK AO2 SLP122 T02060178
                 52002 =
2018-08-18 10:45 METAR KRME 181445Z 35007KT 10SM BKN014 21/18 A2991 RMK AO2 T02060178 =
2018-08-18 10:30 METAR KRME 181430Z 36007KT 10SM BKN015 21/18 A2990 RMK AO2 T02060178 =
2018-08-18 09:53 METAR KRME 181353Z VRB05KT 10SM OVC014 21/18 A2990 RMK AO2 SLP121 T02110183 =
2018-08-18 09:41 METAR KRME 181341Z 34004KT 10SM BKN014 21/18 A2990 RMK AO2 T02060183 =
2018-08-18 08:53 METAR KRME 181253Z VRB06KT 10SM FEW012 19/18 A2990 RMK AO2 SLP121 T01940178 =
2018-08-18 07:53 METAR KRME 181153Z 01010KT 10SM SCT016 OVC035 19/18 A2990 RMK AO2 SLP120 60001
                 70119 T01890178 10228 20189 51007 =
2018-08-18 07:50 METAR KRME 181150Z 02008KT 10SM SCT016 OVC035 19/18 A2990 RMK AO2 =
2018-08-18 07:40 METAR KRME 181140Z 36006KT 10SM BKN016 OVC035 19/18 A2990 RMK AO2 T01940183 =
2018-08-18 07:22 METAR KRME 181122Z 36005KT 10SM SCT016 OVC036 19/19 A2990 RMK AO2 T01940189 =
2018-08-18 07:14 METAR KRME 181114Z 35005KT 10SM BKN016 OVC036 19/19 A2990 RMK AO2 T01940189 =
2018-08-18 06:53 METAR KRME 181053Z 01007KT 10SM BKN038 BKN049 OVC085 19/19 A2989 RMK AO2
                 RAE0956B34E45 SLP118 P0000 T01940189 =
2018-08-18 06:18 METAR KRME 181018Z AUTO 32006KT 10SM FEW022 BKN040 OVC100 19/19 A2989 RMK AO2
                 RAE0956 P0000 T01940189 =
2018-08-18 05:53 METAR KRME 180953Z AUTO 33005KT 10SM -RA OVC020 19/19 A2988 RMK AO2 RAB41 SLP113
                 P0000 T01940189 =
2018-08-18 04:53 METAR KRME 180853Z AUTO 00000KT 10SM OVC019 20/19 A2986 RMK AO2 RAE20 SLP108
                 P0000 60001 T02000189 55001 =
2018-08-18 03:53 METAR KRME 180753Z AUTO 03006KT 10SM -RA SCT008 OVC016 21/19 A2986 RMK AO2
                 SLP107 P0000 T02060194 =
2018-08-18 03:28 METAR KRME 180728Z AUTO 30004KT 8SM -RA BKN006 OVC015 22/22 A2986 RMK AO2 CIG
                 005V011 P0000 T02220222 =
2018-08-18 03:14 METAR KRME 180714Z AUTO 30004KT 10SM -RA FEW006 BKN018 OVC035 22/22 A2986 RMK
                 AO2 CIG 014V026 P0000 T02220222 =
2018-08-18 02:53 METAR KRME 180653Z AUTO 28004KT 7SM -RA SCT013 BKN022 BKN050 22/22 A2986 RMK AO2
                 SLP105 P0001 T02220222 =
2018-08-18 01:53 METAR KRME 180553Z AUTO 28003KT 10SM -RA BKN021 BKN028 OVC060 22/22 A2987 RMK
                 AO2 RAB48 SLP109 P0000 60001 T02220222 10233 20222 58007 =
2018-08-18 00:53 METAR KRME 180453Z AUTO 28004KT 10SM BKN021 OVC031 23/22 A2988 RMK AO2 SLP113
                 T02280222 402830200 =
2018-08-18 00:06 METAR KRME 180406Z AUTO 11003KT 8SM BKN028 OVC036 22/22 A2988 RMK AO2 T02220222
                 =
2018-08-17 23:53 METAR KRME 180353Z AUTO 00000KT 10SM OVC032 22/22 A2989 RMK AO2 SLP115 T02220222
                 =
2018-08-17 22:53 METAR KRME 180253Z AUTO 00000KT 10SM OVC033 23/23 A2989 RMK AO2 SLP117 60001
                 T02280228 58001 =
2018-08-17 22:09 METAR KRME 180209Z AUTO 00000KT 10SM BKN029 23/23 A2989 RMK AO2 T02280228 =
2018-08-17 21:53 METAR KRME 180153Z AUTO 00000KT 10SM SCT029 SCT040 BKN080 22/22 A2990 RMK AO2
                 SLP121 T02220222 =
2018-08-17 21:18 METAR KRME 180118Z AUTO 00000KT 10SM SCT019 BKN048 BKN070 23/23 A2990 RMK AO2
                 T02280228 =
2018-08-17 21:02 METAR KRME 180102Z AUTO 00000KT 10SM FEW012 BKN019 BKN060 22/22 A2990 RMK AO2
                 T02220222 =
2018-08-17 20:53 METAR KRME 180053Z 11004KT 10SM FEW012 SCT019 23/23 A2989 RMK AO2 LTG DSNT SE
                 RAE12 SLP119 P0001 T02280228 =
2018-08-17 20:36 METAR KRME 180036Z 14006KT 10SM SCT014 BKN018 BKN042 23/23 A2989 RMK AO2 RAE12
                 P0001 T02280228 =
2018-08-17 20:26 METAR KRME 180026Z 13004KT 10SM BKN014 BKN023 OVC041 23/23 A2988 RMK AO2 LTG
                 DSNT S RAE12 P0001 T02280228 =
2018-08-17 19:53 METAR KRME 172353Z 07004KT 5SM RA BR SCT037 BKN050 OVC110 23/23 A2988 RMK AO2
                 LTG DSNT SE RAB23 SLP115 P0006 60070 T02330228 10283 20233 50002 =
2018-08-17 19:26 METAR KRME 172326Z 08006KT 3SM +RA BR SCT020 BKN035 OVC065 23/23 A2989 RMK AO2
                 LTG DSNT E-SW RAB23 P0002 T02330233 =
2018-08-17 18:53 METAR KRME 172253Z 00000KT 10SM BKN020 BKN044 24/24 A2989 RMK AO2 LTG DSNT ALQDS
                 RAE11B23E42 TSE2157B12E27 SLP116 P0004 T02440239 =
2018-08-17 18:46 METAR KRME 172246Z 00000KT 10SM BKN021 BKN027 OVC049 24/24 A2989 RMK AO2 LTG
                 DSNT ALQDS RAE11B23E42 TSE2157B12E27 P0004 T02440239 =
2018-08-17 18:37 METAR KRME 172237Z COR 05004KT 5SM VCTS -RA BR BKN021 BKN032 OVC045 24/23 A2989
                 RMK AO2 TS DSNT E LTG DSNT E-S RAE11B23 TSE2157B12E27 P0004 T02440233 =
2018-08-17 18:27 METAR KRME 172227Z COR 00000KT 2 1/2SM VCTS RA BR SCT022 BKN026 OVC043 24/23
                 A2990 RMK AO2 TS DSNT E LTG DSNT ALQDS RAE11B23 TSE2157B12E27 P0003 T02390233 =
2018-08-17 18:13 METAR KRME 172213Z COR 02005KT 10SM TS SCT023 BKN034 OVC050 24/23 A2989 RMK
                 AO2TS DSNT E LTG DSNT ALQDS RAE11 TSE2157B12 P0001 T02440233 =
2018-08-17 18:03 METAR KRME 172203Z COR 02007KT 3SM VCTS -RA BR FEW007 BKN024 OVC050 24/23 A2988
                 RMK AO2 TS E MOV E LTG DSNT ALQDS TSE2157 P0001 T02440233 =
2018-08-17 17:53 METAR KRME 172153Z COR 00000KT 5SM -TSRA BR FEW007 BKN019 OVC026 24/23 A2989 RMK
                 AO2 TS E MOV E LTG DSNT NE AND SW RAB16 TSE2057B21 SLP118 P0046 T02390233 =
2018-08-17 17:44 METAR KRME 172144Z COR 05013KT 1/2SM +TSRA FG FEW007 BKN018 BKN027 23/23 A2988
                 RMK AO2 VIS M1/4V3 TS E MOV E LTG DSNT NE AND NW RAB16 TSE2057B21 P0046
                 T02330233 RVRNO =
2018-08-17 17:35 METAR KRME 172135Z COR 02007KT 340V050 1/2SM +TSRA FG FEW005 SCT022 BKN041 24/24
                 A2990 RMK AO2 TS E MOV E LTG DSNT ALQDS RAB16 TSE2057B21 P0022 T02390239 RVRNO =
2018-08-17 17:24 METAR KRME 172124Z COR VRB03KT 10SM -TSRA SCT042 SCT049 BKN060 25/24 A2989 RMK
                 AO2 TS E MOV E LTG DSNT ALQDS RAB16 TSE2057B21 P0000 T02500239 =
2018-08-17 17:10 METAR KRME 172110Z 00000KT 9SM BKN042 BKN060 24/24 A2989 RMK AO2 LTG DSNT ALQDS
                 TSE2057 T02440244 =
2018-08-17 17:03 METAR KRME 172103Z COR 13004KT 9SM VCTS SCT042 BKN060 24/24 A2989 RMK AO2 TS E
                 LTG DSNT ALQDS TSE2057 T02440239 =
2018-08-17 16:53 METAR KRME 172053Z COR 07004KT 10SM TS SCT044 BKN060 24/24 A2988 RMK AO2 TS OVDH
                 MOV E LTG DSNT ALQDS RAB1954E27 TSB07E39B42 SLP112 P0002 60014 T02440239 56020 =
2018-08-17 16:45 METAR KRME 172045Z COR 06005KT 10SM TS SCT042 BKN060 24/23 A2987 RMK AO2 TS OVDH
                 MOV E LTG DSNT ALQDS RAB1954E27 TSB07E39B42 P0002 T02440233 =
2018-08-17 16:13 METAR KRME 172013Z COR 32005KT 9SM -TSRA FEW041 BKN065 OVC100 26/24 A2988 RMK
                 AO2 TS OHD MOV E LTG DSNT ALQDS RAB1954 TSB07 P0001 T02560239 =
2018-08-17 15:53 METAR KRME 171953Z 02004KT 9SM FEW041 SCT055 OVC100 26/24 A2990 RMK AO2 LTG DSNT
                 NE AND E AND W RAE20 TSE20 SLP119 P0012 T02560244 =

Support USWX by starting your Amazon purchase here.